sensor_id;sensor_type;location;lat;lon;timestamp;pressure;altitude;pressure_sealevel;temperature;humidity
6343;BME280;3204;42.698;23.298;2022-08-02T00:01:43;94816.19;;;22.85;52.41
6343;BME280;3204;42.698;23.298;2022-08-02T00:04:09;94815.00;;;22.86;52.40
6343;BME280;3204;42.698;23.298;2022-08-02T00:06:35;94817.78;;;22.86;52.19
6343;BME280;3204;42.698;23.298;2022-08-02T00:09:01;94813.81;;;22.80;52.22
6343;BME280;3204;42.698;23.298;2022-08-02T00:11:27;94809.81;;;22.71;52.70
6343;BME280;3204;42.698;23.298;2022-08-02T00:13:52;94801.09;;;22.65;52.97
6343;BME280;3204;42.698;23.298;2022-08-02T00:16:18;94811.38;;;22.65;53.19
6343;BME280;3204;42.698;23.298;2022-08-02T00:18:43;94803.44;;;22.63;53.17
6343;BME280;3204;42.698;23.298;2022-08-02T00:21:09;94814.13;;;22.61;52.85
6343;BME280;3204;42.698;23.298;2022-08-02T00:23:34;94808.16;;;22.56;53.08
6343;BME280;3204;42.698;23.298;2022-08-02T00:26:00;94803.00;;;22.54;53.19
6343;BME280;3204;42.698;23.298;2022-08-02T00:28:25;94805.75;;;22.51;53.33
6343;BME280;3204;42.698;23.298;2022-08-02T00:30:51;94806.56;;;22.51;53.77
6343;BME280;3204;42.698;23.298;2022-08-02T00:33:17;94807.34;;;22.48;53.71
6343;BME280;3204;42.698;23.298;2022-08-02T00:35:42;94800.13;;;22.40;53.88
6343;BME280;3204;42.698;23.298;2022-08-02T00:38:11;94806.09;;;22.39;53.71
6343;BME280;3204;42.698;23.298;2022-08-02T00:40:36;94798.16;;;22.34;53.63
6343;BME280;3204;42.698;23.298;2022-08-02T00:43:04;94807.59;;;22.29;53.58
6343;BME280;3204;42.698;23.298;2022-08-02T00:45:35;94801.25;;;22.25;53.58
6343;BME280;3204;42.698;23.298;2022-08-02T00:48:02;94806.31;;;22.13;54.56
6343;BME280;3204;42.698;23.298;2022-08-02T00:50:28;94797.63;;;22.11;55.03
6343;BME280;3204;42.698;23.298;2022-08-02T00:52:54;94800.75;;;22.06;55.16
6343;BME280;3204;42.698;23.298;2022-08-02T00:55:20;94799.13;;;22.01;54.96
6343;BME280;3204;42.698;23.298;2022-08-02T00:57:46;94803.16;;;22.14;54.62
6343;BME280;3204;42.698;23.298;2022-08-02T01:00:13;94795.06;;;21.85;54.86
6343;BME280;3204;42.698;23.298;2022-08-02T01:02:39;94796.81;;;21.60;55.85
6343;BME280;3204;42.698;23.298;2022-08-02T01:05:05;94794.06;;;21.63;55.65
6343;BME280;3204;42.698;23.298;2022-08-02T01:07:31;94794.56;;;21.69;55.54
6343;BME280;3204;42.698;23.298;2022-08-02T01:09:56;94796.78;;;21.56;55.51
6343;BME280;3204;42.698;23.298;2022-08-02T01:12:22;94793.16;;;21.49;55.96
6343;BME280;3204;42.698;23.298;2022-08-02T01:14:53;94798.63;;;21.45;55.90
6343;BME280;3204;42.698;23.298;2022-08-02T01:28:37;94789.09;;;21.36;57.63
6343;BME280;3204;42.698;23.298;2022-08-02T01:36:47;94798.44;;;21.21;57.51
6343;BME280;3204;42.698;23.298;2022-08-02T01:39:16;94796.72;;;21.09;57.41
6343;BME280;3204;42.698;23.298;2022-08-02T01:41:44;94795.63;;;20.84;57.78
6343;BME280;3204;42.698;23.298;2022-08-02T01:44:12;94798.63;;;20.69;58.48
6343;BME280;3204;42.698;23.298;2022-08-02T01:46:40;94792.25;;;20.65;58.45
6343;BME280;3204;42.698;23.298;2022-08-02T01:49:11;94792.91;;;20.51;58.79
6343;BME280;3204;42.698;23.298;2022-08-02T01:51:40;94798.72;;;20.46;59.11
6343;BME280;3204;42.698;23.298;2022-08-02T01:54:28;94793.63;;;20.48;59.14
6343;BME280;3204;42.698;23.298;2022-08-02T01:56:55;94794.75;;;20.44;59.39
6343;BME280;3204;42.698;23.298;2022-08-02T01:59:22;94795.25;;;20.53;58.89
6343;BME280;3204;42.698;23.298;2022-08-02T02:01:50;94803.91;;;20.51;58.74
6343;BME280;3204;42.698;23.298;2022-08-02T02:04:16;94805.38;;;20.45;58.93
6343;BME280;3204;42.698;23.298;2022-08-02T02:06:45;94804.53;;;20.41;58.79
6343;BME280;3204;42.698;23.298;2022-08-02T02:09:13;94805.41;;;20.16;59.13
6343;BME280;3204;42.698;23.298;2022-08-02T02:11:42;94802.34;;;19.98;60.20
6343;BME280;3204;42.698;23.298;2022-08-02T02:14:10;94800.03;;;20.00;60.22
6343;BME280;3204;42.698;23.298;2022-08-02T02:16:37;94799.59;;;19.98;60.38
6343;BME280;3204;42.698;23.298;2022-08-02T02:19:05;94795.38;;;20.04;60.17
6343;BME280;3204;42.698;23.298;2022-08-02T02:21:31;94805.22;;;20.05;60.39
6343;BME280;3204;42.698;23.298;2022-08-02T02:23:57;94801.03;;;20.15;59.85
6343;BME280;3204;42.698;23.298;2022-08-02T02:26:24;94804.28;;;20.20;59.71
6343;BME280;3204;42.698;23.298;2022-08-02T02:28:51;94793.25;;;20.20;59.57
6343;BME280;3204;42.698;23.298;2022-08-02T02:31:18;94804.31;;;20.24;59.55
6343;BME280;3204;42.698;23.298;2022-08-02T02:33:51;94806.75;;;20.29;59.34
6343;BME280;3204;42.698;23.298;2022-08-02T02:36:21;94806.84;;;20.36;59.16
6343;BME280;3204;42.698;23.298;2022-08-02T02:38:49;94804.53;;;20.41;58.88
6343;BME280;3204;42.698;23.298;2022-08-02T02:41:18;94804.63;;;20.45;58.50
6343;BME280;3204;42.698;23.298;2022-08-02T02:43:46;94800.66;;;20.42;58.84
6343;BME280;3204;42.698;23.298;2022-08-02T02:46:12;94801.22;;;20.29;58.85
6343;BME280;3204;42.698;23.298;2022-08-02T02:48:39;94794.94;;;20.28;58.86
6343;BME280;3204;42.698;23.298;2022-08-02T02:51:06;94800.53;;;20.35;58.82
6343;BME280;3204;42.698;23.298;2022-08-02T02:53:34;94806.06;;;20.35;59.05
6343;BME280;3204;42.698;23.298;2022-08-02T02:56:00;94808.59;;;20.47;58.79
6343;BME280;3204;42.698;23.298;2022-08-02T02:58:27;94806.50;;;20.37;58.69
6343;BME280;3204;42.698;23.298;2022-08-02T03:00:52;94805.13;;;20.24;59.01
6343;BME280;3204;42.698;23.298;2022-08-02T03:04:00;94806.94;;;20.43;58.96
6343;BME280;3204;42.698;23.298;2022-08-02T03:06:27;94805.53;;;20.26;59.15
6343;BME280;3204;42.698;23.298;2022-08-02T03:08:53;94799.94;;;20.19;59.61
6343;BME280;3204;42.698;23.298;2022-08-02T03:11:18;94802.38;;;20.24;59.63
6343;BME280;3204;42.698;23.298;2022-08-02T03:13:44;94802.00;;;20.26;59.53
6343;BME280;3204;42.698;23.298;2022-08-02T03:16:11;94806.34;;;20.27;59.57
6343;BME280;3204;42.698;23.298;2022-08-02T03:18:41;94816.38;;;20.42;59.12
6343;BME280;3204;42.698;23.298;2022-08-02T03:21:09;94806.19;;;20.16;59.52
6343;BME280;3204;42.698;23.298;2022-08-02T03:23:40;94798.97;;;20.08;60.15
6343;BME280;3204;42.698;23.298;2022-08-02T03:26:06;94804.50;;;20.08;60.17
6343;BME280;3204;42.698;23.298;2022-08-02T03:28:32;94803.09;;;20.21;60.11
6343;BME280;3204;42.698;23.298;2022-08-02T03:30:58;94806.72;;;20.25;59.37
6343;BME280;3204;42.698;23.298;2022-08-02T03:33:25;94805.63;;;20.07;60.25
6343;BME280;3204;42.698;23.298;2022-08-02T03:35:53;94807.84;;;19.98;60.07
6343;BME280;3204;42.698;23.298;2022-08-02T03:38:20;94803.50;;;19.97;60.45
6343;BME280;3204;42.698;23.298;2022-08-02T03:40:47;94808.38;;;20.07;60.37
6343;BME280;3204;42.698;23.298;2022-08-02T03:43:14;94808.09;;;20.12;59.78
6343;BME280;3204;42.698;23.298;2022-08-02T03:45:46;94812.63;;;20.01;60.19
6343;BME280;3204;42.698;23.298;2022-08-02T03:48:13;94810.41;;;19.84;60.35
6343;BME280;3204;42.698;23.298;2022-08-02T03:50:39;94809.50;;;19.77;60.86
6343;BME280;3204;42.698;23.298;2022-08-02T03:53:06;94815.44;;;19.79;61.30
6343;BME280;3204;42.698;23.298;2022-08-02T03:55:33;94814.63;;;19.78;61.29
6343;BME280;3204;42.698;23.298;2022-08-02T03:57:59;94828.09;;;19.83;60.83
6343;BME280;3204;42.698;23.298;2022-08-02T04:00:25;94829.56;;;20.03;60.19
6343;BME280;3204;42.698;23.298;2022-08-02T04:02:50;94833.03;;;19.97;60.44
6343;BME280;3204;42.698;23.298;2022-08-02T04:05:17;94833.19;;;19.81;60.70
6343;BME280;3204;42.698;23.298;2022-08-02T04:07:42;94845.00;;;19.59;61.38
6343;BME280;3204;42.698;23.298;2022-08-02T04:10:08;94841.75;;;19.54;61.77
6343;BME280;3204;42.698;23.298;2022-08-02T04:12:34;94841.97;;;19.68;61.74
6343;BME280;3204;42.698;23.298;2022-08-02T04:15:02;94847.66;;;19.78;61.51
6343;BME280;3204;42.698;23.298;2022-08-02T04:17:30;94850.59;;;19.89;61.26
6343;BME280;3204;42.698;23.298;2022-08-02T04:20:02;94848.75;;;19.96;61.00
6343;BME280;3204;42.698;23.298;2022-08-02T04:22:36;94860.41;;;20.12;60.45
6343;BME280;3204;42.698;23.298;2022-08-02T04:25:06;94853.78;;;20.13;60.45
6343;BME280;3204;42.698;23.298;2022-08-02T04:27:33;94846.78;;;20.19;60.29
6343;BME280;3204;42.698;23.298;2022-08-02T04:30:01;94849.84;;;20.14;60.37
6343;BME280;3204;42.698;23.298;2022-08-02T04:32:27;94846.78;;;20.19;60.55
6343;BME280;3204;42.698;23.298;2022-08-02T04:34:53;94850.09;;;20.32;60.31
6343;BME280;3204;42.698;23.298;2022-08-02T04:37:19;94849.03;;;20.40;59.98
6343;BME280;3204;42.698;23.298;2022-08-02T04:39:45;94847.25;;;20.54;59.42
6343;BME280;3204;42.698;23.298;2022-08-02T04:42:19;94851.56;;;20.85;59.50
6343;BME280;3204;42.698;23.298;2022-08-02T04:44:45;94850.25;;;21.05;58.49
6343;BME280;3204;42.698;23.298;2022-08-02T04:47:10;94853.13;;;21.12;57.71
6343;BME280;3204;42.698;23.298;2022-08-02T04:49:36;94849.56;;;21.15;57.73
6343;BME280;3204;42.698;23.298;2022-08-02T04:52:02;94854.56;;;21.02;57.78
6343;BME280;3204;42.698;23.298;2022-08-02T04:54:27;94863.34;;;21.11;57.86
6343;BME280;3204;42.698;23.298;2022-08-02T04:56:53;94857.56;;;21.23;57.52
6343;BME280;3204;42.698;23.298;2022-08-02T04:59:19;94855.59;;;21.24;57.62
6343;BME280;3204;42.698;23.298;2022-08-02T05:01:44;94852.06;;;21.23;57.87
6343;BME280;3204;42.698;23.298;2022-08-02T05:04:10;94853.69;;;21.31;57.44
6343;BME280;3204;42.698;23.298;2022-08-02T05:06:35;94858.44;;;21.31;57.41
6343;BME280;3204;42.698;23.298;2022-08-02T05:09:01;94854.97;;;21.37;57.45
6343;BME280;3204;42.698;23.298;2022-08-02T05:11:26;94853.78;;;21.38;57.35
6343;BME280;3204;42.698;23.298;2022-08-02T05:13:51;94852.25;;;21.44;57.66
6343;BME280;3204;42.698;23.298;2022-08-02T05:16:17;94862.47;;;21.40;57.91
6343;BME280;3204;42.698;23.298;2022-08-02T05:18:43;94860.34;;;21.63;57.66
6343;BME280;3204;42.698;23.298;2022-08-02T05:21:08;94854.91;;;21.70;57.82
6343;BME280;3204;42.698;23.298;2022-08-02T05:23:34;94856.75;;;22.03;57.62
6343;BME280;3204;42.698;23.298;2022-08-02T05:25:59;94862.84;;;21.75;56.55
6343;BME280;3204;42.698;23.298;2022-08-02T05:28:25;94865.31;;;21.87;56.97
6343;BME280;3204;42.698;23.298;2022-08-02T05:30:51;94865.66;;;21.82;57.17
6343;BME280;3204;42.698;23.298;2022-08-02T05:33:16;94875.16;;;21.85;57.17
6343;BME280;3204;42.698;23.298;2022-08-02T05:35:42;94868.41;;;21.82;57.44
6343;BME280;3204;42.698;23.298;2022-08-02T05:38:07;94866.50;;;21.90;57.59
6343;BME280;3204;42.698;23.298;2022-08-02T05:40:33;94871.88;;;22.16;56.68
6343;BME280;3204;42.698;23.298;2022-08-02T05:42:58;94867.66;;;22.36;56.31
6343;BME280;3204;42.698;23.298;2022-08-02T05:45:24;94877.53;;;22.40;56.01
6343;BME280;3204;42.698;23.298;2022-08-02T05:47:50;94878.47;;;22.58;55.76
6343;BME280;3204;42.698;23.298;2022-08-02T05:50:16;94880.06;;;22.59;55.14
6343;BME280;3204;42.698;23.298;2022-08-02T05:55:18;94878.63;;;22.86;54.07
6343;BME280;3204;42.698;23.298;2022-08-02T05:58:05;94872.78;;;22.98;53.45
6343;BME280;3204;42.698;23.298;2022-08-02T06:00:32;94886.63;;;23.02;54.35
6343;BME280;3204;42.698;23.298;2022-08-02T06:03:32;94883.50;;;23.14;53.94
6343;BME280;3204;42.698;23.298;2022-08-02T06:06:11;94885.97;;;23.29;53.29
6343;BME280;3204;42.698;23.298;2022-08-02T06:08:43;94893.50;;;23.39;52.36
6343;BME280;3204;42.698;23.298;2022-08-02T06:11:12;94895.13;;;23.47;52.12
6343;BME280;3204;42.698;23.298;2022-08-02T06:13:40;94889.19;;;23.59;52.08
6343;BME280;3204;42.698;23.298;2022-08-02T06:16:06;94888.47;;;23.83;52.41
6343;BME280;3204;42.698;23.298;2022-08-02T06:18:33;94882.16;;;24.04;51.57
6343;BME280;3204;42.698;23.298;2022-08-02T06:21:04;94894.06;;;24.15;48.54
6343;BME280;3204;42.698;23.298;2022-08-02T06:23:31;94894.84;;;24.15;48.25
6343;BME280;3204;42.698;23.298;2022-08-02T06:25:57;94894.84;;;24.29;47.18
6343;BME280;3204;42.698;23.298;2022-08-02T06:28:23;94893.25;;;24.35;47.35
6343;BME280;3204;42.698;23.298;2022-08-02T06:30:49;94903.94;;;24.51;47.70
6343;BME280;3204;42.698;23.298;2022-08-02T06:33:15;94902.75;;;24.69;47.68
6343;BME280;3204;42.698;23.298;2022-08-02T06:38:16;94910.97;;;25.04;46.14
6343;BME280;3204;42.698;23.298;2022-08-02T06:46:02;94916.28;;;25.71;45.44
6343;BME280;3204;42.698;23.298;2022-08-02T06:48:29;94911.41;;;25.92;44.30
6343;BME280;3204;42.698;23.298;2022-08-02T06:50:55;94909.00;;;25.94;43.85
6343;BME280;3204;42.698;23.298;2022-08-02T06:53:20;94910.56;;;26.02;43.94
6343;BME280;3204;42.698;23.298;2022-08-02T06:55:46;94911.63;;;26.15;43.81
6343;BME280;3204;42.698;23.298;2022-08-02T06:58:12;94909.19;;;26.28;43.73
6343;BME280;3204;42.698;23.298;2022-08-02T07:00:39;94899.84;;;26.52;43.78
6343;BME280;3204;42.698;23.298;2022-08-02T07:03:06;94906.03;;;26.70;43.12
6343;BME280;3204;42.698;23.298;2022-08-02T07:05:31;94918.09;;;26.97;42.81
6343;BME280;3204;42.698;23.298;2022-08-02T07:07:57;94907.22;;;27.09;42.56
6343;BME280;3204;42.698;23.298;2022-08-02T07:10:23;94909.47;;;27.25;42.51
6343;BME280;3204;42.698;23.298;2022-08-02T07:12:48;94908.88;;;27.41;41.75
6343;BME280;3204;42.698;23.298;2022-08-02T07:15:13;94913.41;;;27.58;41.68
6343;BME280;3204;42.698;23.298;2022-08-02T07:17:40;94906.47;;;27.73;40.71
6343;BME280;3204;42.698;23.298;2022-08-02T07:20:06;94912.59;;;27.61;40.99
6343;BME280;3204;42.698;23.298;2022-08-02T07:22:32;94910.50;;;27.68;41.49
6343;BME280;3204;42.698;23.298;2022-08-02T07:24:58;94902.38;;;27.81;41.69
6343;BME280;3204;42.698;23.298;2022-08-02T07:27:25;94904.97;;;27.95;40.82
6343;BME280;3204;42.698;23.298;2022-08-02T07:29:51;94905.72;;;27.99;40.58
6343;BME280;3204;42.698;23.298;2022-08-02T07:32:18;94908.16;;;27.97;41.05
6343;BME280;3204;42.698;23.298;2022-08-02T07:34:45;94904.41;;;28.07;41.24
6343;BME280;3204;42.698;23.298;2022-08-02T07:37:11;94897.88;;;28.17;41.32
6343;BME280;3204;42.698;23.298;2022-08-02T07:39:37;94897.19;;;28.36;41.36
6343;BME280;3204;42.698;23.298;2022-08-02T07:42:02;94894.75;;;28.41;41.12
6343;BME280;3204;42.698;23.298;2022-08-02T07:44:28;94903.66;;;28.56;40.67
6343;BME280;3204;42.698;23.298;2022-08-02T07:46:59;94895.28;;;28.79;40.62
6343;BME280;3204;42.698;23.298;2022-08-02T07:49:25;94894.66;;;28.91;40.49
6343;BME280;3204;42.698;23.298;2022-08-02T07:51:51;94900.53;;;28.96;40.19
6343;BME280;3204;42.698;23.298;2022-08-02T07:54:16;94888.53;;;29.19;39.69
6343;BME280;3204;42.698;23.298;2022-08-02T07:56:42;94896.53;;;29.40;39.26
6343;BME280;3204;42.698;23.298;2022-08-02T07:59:07;94899.88;;;29.51;38.63
6343;BME280;3204;42.698;23.298;2022-08-02T08:01:34;94892.38;;;29.48;38.63
6343;BME280;3204;42.698;23.298;2022-08-02T08:04:00;94891.91;;;29.49;38.30
6343;BME280;3204;42.698;23.298;2022-08-02T08:06:54;94892.53;;;29.60;38.60
6343;BME280;3204;42.698;23.298;2022-08-02T08:09:20;94890.50;;;29.61;38.12
6343;BME280;3204;42.698;23.298;2022-08-02T08:11:46;94887.84;;;29.54;39.02
6343;BME280;3204;42.698;23.298;2022-08-02T08:14:11;94889.06;;;29.53;39.20
6343;BME280;3204;42.698;23.298;2022-08-02T08:16:36;94894.75;;;29.69;38.63
6343;BME280;3204;42.698;23.298;2022-08-02T08:19:02;94896.59;;;29.56;38.31
6343;BME280;3204;42.698;23.298;2022-08-02T08:21:28;94897.75;;;29.39;38.71
6343;BME280;3204;42.698;23.298;2022-08-02T08:23:54;94897.47;;;29.53;38.83
6343;BME280;3204;42.698;23.298;2022-08-02T08:26:20;94900.41;;;29.65;38.47
6343;BME280;3204;42.698;23.298;2022-08-02T08:28:46;94896.84;;;29.03;39.69
6343;BME280;3204;42.698;23.298;2022-08-02T08:31:11;94889.88;;;29.34;39.71
6343;BME280;3204;42.698;23.298;2022-08-02T08:33:36;94887.06;;;28.91;40.37
6343;BME280;3204;42.698;23.298;2022-08-02T08:36:02;94879.81;;;29.17;39.17
6343;BME280;3204;42.698;23.298;2022-08-02T08:38:28;94880.25;;;29.35;38.60
6343;BME280;3204;42.698;23.298;2022-08-02T08:40:54;94879.72;;;29.20;40.10
6343;BME280;3204;42.698;23.298;2022-08-02T08:43:25;94889.19;;;29.46;38.58
6343;BME280;3204;42.698;23.298;2022-08-02T08:45:51;94886.47;;;29.62;38.31
6343;BME280;3204;42.698;23.298;2022-08-02T08:48:17;94885.00;;;29.93;38.21
6343;BME280;3204;42.698;23.298;2022-08-02T08:50:55;94888.75;;;30.22;37.71
6343;BME280;3204;42.698;23.298;2022-08-02T08:53:23;94888.88;;;30.50;37.40
6343;BME280;3204;42.698;23.298;2022-08-02T08:55:51;94884.38;;;30.37;37.32
6343;BME280;3204;42.698;23.298;2022-08-02T08:58:18;94887.50;;;30.07;37.41
6343;BME280;3204;42.698;23.298;2022-08-02T09:00:43;94884.66;;;29.91;37.36
6343;BME280;3204;42.698;23.298;2022-08-02T09:03:09;94894.41;;;30.02;37.42
6343;BME280;3204;42.698;23.298;2022-08-02T09:05:39;94888.47;;;30.16;37.12
6343;BME280;3204;42.698;23.298;2022-08-02T09:08:06;94887.38;;;30.46;36.98
6343;BME280;3204;42.698;23.298;2022-08-02T09:10:41;94893.75;;;30.30;37.17
6343;BME280;3204;42.698;23.298;2022-08-02T09:13:12;94890.28;;;29.71;37.20
6343;BME280;3204;42.698;23.298;2022-08-02T09:15:41;94876.66;;;29.34;37.82
6343;BME280;3204;42.698;23.298;2022-08-02T09:18:07;94878.88;;;29.82;37.65
6343;BME280;3204;42.698;23.298;2022-08-02T09:20:34;94879.44;;;30.09;37.09
6343;BME280;3204;42.698;23.298;2022-08-02T09:23:07;94888.41;;;30.52;36.62
6343;BME280;3204;42.698;23.298;2022-08-02T09:25:33;94878.19;;;30.61;37.04
6343;BME280;3204;42.698;23.298;2022-08-02T09:28:00;94885.13;;;30.73;36.41
6343;BME280;3204;42.698;23.298;2022-08-02T09:30:26;94877.25;;;30.68;36.61
6343;BME280;3204;42.698;23.298;2022-08-02T09:32:52;94881.69;;;30.65;36.64
6343;BME280;3204;42.698;23.298;2022-08-02T09:38:08;94873.63;;;30.35;36.34
6343;BME280;3204;42.698;23.298;2022-08-02T09:40:35;94875.13;;;29.88;37.38
6343;BME280;3204;42.698;23.298;2022-08-02T09:43:01;94869.53;;;30.24;37.27
6343;BME280;3204;42.698;23.298;2022-08-02T09:45:31;94866.66;;;30.59;36.52
6343;BME280;3204;42.698;23.298;2022-08-02T09:48:06;94867.78;;;30.62;36.14
6343;BME280;3204;42.698;23.298;2022-08-02T09:50:34;94861.53;;;31.02;36.67
6343;BME280;3204;42.698;23.298;2022-08-02T09:53:01;94865.28;;;31.40;35.36
6343;BME280;3204;42.698;23.298;2022-08-02T09:55:27;94855.75;;;31.38;35.46
6343;BME280;3204;42.698;23.298;2022-08-02T09:57:53;94859.22;;;31.13;35.46
6343;BME280;3204;42.698;23.298;2022-08-02T10:00:19;94862.50;;;30.96;35.46
6343;BME280;3204;42.698;23.298;2022-08-02T10:03:08;94860.63;;;31.21;35.39
6343;BME280;3204;42.698;23.298;2022-08-02T10:05:51;94861.28;;;31.54;35.37
6343;BME280;3204;42.698;23.298;2022-08-02T10:08:19;94861.59;;;31.56;35.07
6343;BME280;3204;42.698;23.298;2022-08-02T10:10:44;94856.41;;;31.42;34.67
6343;BME280;3204;42.698;23.298;2022-08-02T10:13:10;94863.94;;;31.45;34.75
6343;BME280;3204;42.698;23.298;2022-08-02T10:15:37;94859.75;;;31.08;34.22
6343;BME280;3204;42.698;23.298;2022-08-02T10:18:04;94848.38;;;30.99;34.66
6343;BME280;3204;42.698;23.298;2022-08-02T10:20:32;94844.81;;;31.27;35.72
6343;BME280;3204;42.698;23.298;2022-08-02T10:23:01;94849.53;;;31.71;35.10
6343;BME280;3204;42.698;23.298;2022-08-02T10:25:28;94846.69;;;31.59;34.99
6343;BME280;3204;42.698;23.298;2022-08-02T10:27:55;94846.09;;;31.39;35.22
6343;BME280;3204;42.698;23.298;2022-08-02T10:30:23;94851.63;;;31.55;34.88
6343;BME280;3204;42.698;23.298;2022-08-02T10:32:50;94847.00;;;31.48;35.33
6343;BME280;3204;42.698;23.298;2022-08-02T10:35:20;94846.09;;;31.39;35.31
6343;BME280;3204;42.698;23.298;2022-08-02T10:37:50;94844.03;;;31.68;34.87
6343;BME280;3204;42.698;23.298;2022-08-02T10:40:17;94846.56;;;31.91;34.27
6343;BME280;3204;42.698;23.298;2022-08-02T10:42:56;94843.97;;;32.21;34.22
6343;BME280;3204;42.698;23.298;2022-08-02T10:45:23;94841.16;;;32.21;33.75
6343;BME280;3204;42.698;23.298;2022-08-02T10:48:08;94842.94;;;32.03;34.22
6343;BME280;3204;42.698;23.298;2022-08-02T10:55:56;94824.88;;;31.79;34.25
6343;BME280;3204;42.698;23.298;2022-08-02T10:58:23;94838.13;;;32.03;33.35
6343;BME280;3204;42.698;23.298;2022-08-02T11:00:50;94833.34;;;32.29;34.00
6343;BME280;3204;42.698;23.298;2022-08-02T11:08:30;94830.16;;;31.89;34.05
6343;BME280;3204;42.698;23.298;2022-08-02T11:11:18;94830.16;;;32.02;34.15
6343;BME280;3204;42.698;23.298;2022-08-02T11:14:13;94822.88;;;31.51;35.20
6343;BME280;3204;42.698;23.298;2022-08-02T11:19:19;94828.63;;;31.19;35.75
6343;BME280;3204;42.698;23.298;2022-08-02T11:22:01;94833.94;;;31.01;35.82
6343;BME280;3204;42.698;23.298;2022-08-02T11:24:32;94840.19;;;30.92;36.06
6343;BME280;3204;42.698;23.298;2022-08-02T11:27:00;94837.19;;;31.28;35.88
6343;BME280;3204;42.698;23.298;2022-08-02T11:31:59;94830.31;;;30.56;35.71
6343;BME280;3204;42.698;23.298;2022-08-02T11:34:25;94826.88;;;30.80;35.61
6343;BME280;3204;42.698;23.298;2022-08-02T11:36:51;94831.97;;;31.14;35.30
6343;BME280;3204;42.698;23.298;2022-08-02T11:39:21;94823.66;;;31.39;35.49
6343;BME280;3204;42.698;23.298;2022-08-02T11:41:51;94818.97;;;31.61;34.97
6343;BME280;3204;42.698;23.298;2022-08-02T11:44:18;94831.53;;;31.56;35.10
6343;BME280;3204;42.698;23.298;2022-08-02T11:46:44;94831.22;;;31.54;34.65
6343;BME280;3204;42.698;23.298;2022-08-02T11:49:14;94826.56;;;31.89;35.14
6343;BME280;3204;42.698;23.298;2022-08-02T11:51:54;94820.72;;;32.33;34.28
6343;BME280;3204;42.698;23.298;2022-08-02T11:54:31;94810.75;;;32.79;33.28
6343;BME280;3204;42.698;23.298;2022-08-02T11:57:15;94827.50;;;32.70;33.55
6343;BME280;3204;42.698;23.298;2022-08-02T11:59:43;94823.03;;;32.60;33.61
6343;BME280;3204;42.698;23.298;2022-08-02T12:02:10;94820.41;;;32.78;33.11
6343;BME280;3204;42.698;23.298;2022-08-02T12:04:37;94823.25;;;32.65;33.46
6343;BME280;3204;42.698;23.298;2022-08-02T12:07:03;94816.06;;;32.64;34.35
6343;BME280;3204;42.698;23.298;2022-08-02T12:09:31;94812.69;;;32.69;34.22
6343;BME280;3204;42.698;23.298;2022-08-02T12:11:57;94819.59;;;32.06;34.96
6343;BME280;3204;42.698;23.298;2022-08-02T12:14:25;94820.28;;;31.97;34.62
6343;BME280;3204;42.698;23.298;2022-08-02T12:16:51;94818.38;;;31.82;34.51
6343;BME280;3204;42.698;23.298;2022-08-02T12:19:36;94823.97;;;31.82;35.30
6343;BME280;3204;42.698;23.298;2022-08-02T12:22:11;94826.63;;;31.60;35.26
6343;BME280;3204;42.698;23.298;2022-08-02T12:24:38;94827.88;;;31.72;35.30
6343;BME280;3204;42.698;23.298;2022-08-02T12:27:04;94822.50;;;31.77;35.25
6343;BME280;3204;42.698;23.298;2022-08-02T12:29:31;94830.16;;;31.36;34.85
6343;BME280;3204;42.698;23.298;2022-08-02T12:31:58;94819.06;;;31.45;35.02
6343;BME280;3204;42.698;23.298;2022-08-02T12:34:25;94821.25;;;31.66;34.35
6343;BME280;3204;42.698;23.298;2022-08-02T12:37:00;94823.66;;;31.92;34.31
6343;BME280;3204;42.698;23.298;2022-08-02T12:39:44;94817.69;;;32.15;33.93
6343;BME280;3204;42.698;23.298;2022-08-02T12:42:12;94816.66;;;32.22;34.23
6343;BME280;3204;42.698;23.298;2022-08-02T12:44:58;94817.47;;;32.35;34.75
6343;BME280;3204;42.698;23.298;2022-08-02T12:47:24;94817.16;;;32.33;35.03
6343;BME280;3204;42.698;23.298;2022-08-02T12:50:23;94810.06;;;32.03;35.50
6343;BME280;3204;42.698;23.298;2022-08-02T12:52:49;94821.56;;;31.55;35.33
6343;BME280;3204;42.698;23.298;2022-08-02T12:55:21;94825.56;;;31.13;36.03
6343;BME280;3204;42.698;23.298;2022-08-02T12:57:59;94816.59;;;30.90;36.35
6343;BME280;3204;42.698;23.298;2022-08-02T13:00:33;94809.50;;;30.41;37.06
6343;BME280;3204;42.698;23.298;2022-08-02T13:02:59;94810.84;;;30.65;37.20
6343;BME280;3204;42.698;23.298;2022-08-02T13:05:26;94806.94;;;31.07;36.40
6343;BME280;3204;42.698;23.298;2022-08-02T13:07:53;94807.84;;;31.45;36.29
6343;BME280;3204;42.698;23.298;2022-08-02T13:10:19;94798.16;;;31.74;35.34
6343;BME280;3204;42.698;23.298;2022-08-02T13:12:45;94805.25;;;32.04;34.47
6343;BME280;3204;42.698;23.298;2022-08-02T13:15:11;94808.50;;;32.02;34.46
6343;BME280;3204;42.698;23.298;2022-08-02T13:17:37;94807.13;;;31.94;34.79
6343;BME280;3204;42.698;23.298;2022-08-02T13:20:04;94800.06;;;32.02;34.68
6343;BME280;3204;42.698;23.298;2022-08-02T13:22:30;94811.75;;;32.01;35.10
6343;BME280;3204;42.698;23.298;2022-08-02T13:24:56;94795.47;;;32.08;34.70
6343;BME280;3204;42.698;23.298;2022-08-02T13:27:21;94800.75;;;32.19;34.78
6343;BME280;3204;42.698;23.298;2022-08-02T13:29:48;94799.13;;;32.18;34.73
6343;BME280;3204;42.698;23.298;2022-08-02T13:32:14;94796.16;;;32.00;35.92
6343;BME280;3204;42.698;23.298;2022-08-02T13:34:39;94800.22;;;31.45;35.96
6343;BME280;3204;42.698;23.298;2022-08-02T13:37:05;94796.44;;;31.64;35.85
6343;BME280;3204;42.698;23.298;2022-08-02T13:39:31;94807.44;;;31.71;35.22
6343;BME280;3204;42.698;23.298;2022-08-02T13:41:56;94802.69;;;31.56;35.67
6343;BME280;3204;42.698;23.298;2022-08-02T13:44:22;94810.03;;;31.25;36.45
6343;BME280;3204;42.698;23.298;2022-08-02T13:46:47;94806.00;;;31.26;37.06
6343;BME280;3204;42.698;23.298;2022-08-02T13:49:13;94801.75;;;31.05;35.76
6343;BME280;3204;42.698;23.298;2022-08-02T13:51:39;94796.41;;;30.82;35.97
6343;BME280;3204;42.698;23.298;2022-08-02T13:54:04;94799.19;;;30.82;36.07
6343;BME280;3204;42.698;23.298;2022-08-02T13:56:30;94802.31;;;30.72;36.62
6343;BME280;3204;42.698;23.298;2022-08-02T13:58:56;94805.72;;;30.79;36.84
6343;BME280;3204;42.698;23.298;2022-08-02T14:01:24;94805.44;;;30.74;37.04